Nizwa, Oman
Current Conditions -  °F | °C
As of 8:50 PM on Friday 24 Oct 2014 (Local Time) from EQMN Reporting Station
Clear Clear  
Wind Chill: 82°   Ceiling: Unl
Heat Index: 86°   Visibility: 6mi
Dew Point: 70°   Wind: 5mph
Humidity: 66%   Direction: 120°ESE
Pressure: 29.88"   Gusts: NA
Location:  22.92°N, 57.53°E
Report Text: EQMN 241650Z 12004KT 9999 SKC 28/21 Q1012 BLU NOSIG
Loading
Personal Weather Stations






























Interactive Weather Map
Tropical Storm Tracking
New forecast layout! Learn more

10-Day Weather Forecast

Advertisements
Track Severe Weather on mobile